Time;durP1;ratioP1;P1;durP2;ratioP2;P2;SDS_P1;SDS_P2;PMS_P1;PMS_P2;Temp;Humidity;BMP_temperature;BMP_pressure;BME280_temperature;BME280_humidity;BME280_pressure;Samples;Min_cycle;Max_cycle;Signal;HPM_P1;HPM_P2
2021/01/16 00:00:38;;;;;;;41.63;21.15;;;-1.30;77.90;;;;;;5017123;28;20038;-65
2021/01/16 00:03:11;;;;;;;41.92;21.45;;;-1.30;77.90;;;;;;5019958;28;20184;-65
2021/01/16 00:05:38;;;;;;;41.42;21.17;;;-1.30;78.10;;;;;;5019348;28;20050;-65
2021/01/16 00:08:06;;;;;;;37.83;20.08;;;-1.30;78.00;;;;;;5021231;28;20038;-66
2021/01/16 00:10:37;;;;;;;38.13;20.00;;;-1.30;78.10;;;;;;5019926;28;20029;-65
2021/01/16 00:13:04;;;;;;;36.45;19.65;;;-1.30;78.10;;;;;;5020172;28;20292;-66
2021/01/16 00:15:30;;;;;;;32.63;18.67;;;-1.30;79.00;;;;;;5020804;28;20049;-66
2021/01/16 00:18:03;;;;;;;39.28;20.65;;;-1.30;78.20;;;;;;5021072;28;20536;-66
2021/01/16 00:20:29;;;;;;;35.70;19.50;;;-1.30;78.30;;;;;;5020520;28;20568;-65
2021/01/16 00:22:55;;;;;;;33.83;18.63;;;-1.30;78.30;;;;;;5022603;28;20121;-66
2021/01/16 00:25:21;;;;;;;34.85;18.95;;;-1.20;78.30;;;;;;5021483;28;20124;-66
2021/01/16 00:27:46;;;;;;;39.70;19.27;;;-1.30;78.30;;;;;;5021156;28;20065;-66
2021/01/16 00:30:14;;;;;;;37.47;18.90;;;-1.30;78.30;;;;;;5021178;28;20365;-66
2021/01/16 00:32:41;;;;;;;36.90;19.88;;;-1.30;78.30;;;;;;5021567;28;20037;-66
2021/01/16 00:35:09;;;;;;;39.95;19.92;;;-1.30;78.40;;;;;;5021097;28;20057;-66
2021/01/16 00:37:36;;;;;;;38.08;19.88;;;-1.20;78.50;;;;;;5021418;28;20029;-66
2021/01/16 00:40:08;;;;;;;36.67;20.75;;;-1.30;78.40;;;;;;5020875;28;20036;-65
2021/01/16 00:42:42;;;;;;;40.53;21.17;;;-1.30;78.40;;;;;;5020507;28;20041;-66
2021/01/16 00:45:09;;;;;;;40.83;20.23;;;-1.20;78.50;;;;;;5020157;28;20378;-65
2021/01/16 00:47:36;;;;;;;41.97;21.40;;;-1.20;78.50;;;;;;5019993;28;20496;-66
2021/01/16 00:50:03;;;;;;;35.17;20.65;;;-1.20;78.50;;;;;;5020586;28;20029;-66
2021/01/16 00:52:28;;;;;;;32.50;19.15;;;-1.30;78.50;;;;;;5019664;28;20042;-66
2021/01/16 00:54:54;;;;;;;34.10;18.60;;;-1.20;78.50;;;;;;5020993;28;20033;-66
2021/01/16 00:57:19;;;;;;;35.85;18.80;;;-1.30;78.50;;;;;;5018675;28;20084;-66
2021/01/16 00:59:45;;;;;;;36.70;18.73;;;-1.20;78.60;;;;;;5020227;28;20077;-66
2021/01/16 01:02:11;;;;;;;32.30;16.48;;;-1.20;78.60;;;;;;5019387;28;20112;-66
2021/01/16 01:04:36;;;;;;;32.95;17.88;;;-1.20;78.60;;;;;;5035156;28;20421;-66
2021/01/16 01:07:04;;;;;;;43.70;20.48;;;-1.20;78.70;;;;;;5018647;28;20022;-66
2021/01/16 01:09:30;;;;;;;35.55;19.05;;;-1.10;78.80;;;;;;5018988;28;20199;-66
2021/01/16 01:11:56;;;;;;;33.22;17.80;;;-1.00;78.80;;;;;;5051604;28;20038;-65
2021/01/16 01:14:21;;;;;;;36.50;19.27;;;-1.00;78.70;;;;;;5033639;28;20566;-66
2021/01/16 01:16:47;;;;;;;35.22;18.27;;;-0.90;78.80;;;;;;5018741;28;20044;-66
2021/01/16 01:19:12;;;;;;;34.03;18.55;;;-0.90;78.60;;;;;;5016625;28;20065;-65
2021/01/16 01:21:38;;;;;;;34.22;18.05;;;-0.80;78.50;;;;;;5015543;28;20038;-66
2021/01/16 01:24:04;;;;;;;32.63;18.17;;;-0.80;78.40;;;;;;5019028;28;20375;-66
2021/01/16 01:26:30;;;;;;;33.25;18.45;;;-0.80;78.40;;;;;;5051207;28;20407;-66
2021/01/16 01:28:55;;;;;;;36.75;19.02;;;-0.70;79.30;;;;;;5019608;28;20037;-65
2021/01/16 01:31:21;;;;;;;33.33;18.58;;;-0.70;78.30;;;;;;5020022;28;20096;-66
2021/01/16 01:33:46;;;;;;;33.80;17.85;;;-0.70;78.30;;;;;;5020013;28;20034;-65
2021/01/16 01:36:12;;;;;;;35.25;19.00;;;-0.70;78.10;;;;;;5019040;28;20500;-66
2021/01/16 01:38:37;;;;;;;37.90;19.42;;;-0.70;78.00;;;;;;5014447;28;20116;-65
2021/01/16 01:41:04;;;;;;;38.22;18.65;;;-0.60;78.00;;;;;;5017596;28;20033;-65
2021/01/16 01:43:30;;;;;;;35.20;19.13;;;-0.60;77.90;;;;;;5016742;28;20041;-64
2021/01/16 01:45:55;;;;;;;35.65;19.30;;;-0.60;78.00;;;;;;5018384;28;20099;-65
2021/01/16 01:48:22;;;;;;;36.67;19.20;;;-0.60;78.00;;;;;;5020455;28;20073;-65
2021/01/16 01:50:48;;;;;;;33.22;18.25;;;-0.60;78.10;;;;;;5019648;28;20072;-65
2021/01/16 01:53:16;;;;;;;43.45;20.50;;;-0.60;78.10;;;;;;5018806;28;20111;-66
2021/01/16 01:55:45;;;;;;;38.05;19.83;;;-0.50;78.10;;;;;;5019202;28;20045;-65
2021/01/16 01:58:14;;;;;;;33.92;19.08;;;-0.50;78.10;;;;;;5015485;28;20107;-66
2021/01/16 02:00:41;;;;;;;34.00;18.35;;;-0.50;78.00;;;;;;5017308;28;20440;-63
2021/01/16 02:03:10;;;;;;;34.65;18.67;;;-0.50;77.90;;;;;;5012333;28;20049;-65
2021/01/16 02:05:36;;;;;;;36.53;19.15;;;-0.50;77.80;;;;;;5018160;28;20068;-65
2021/01/16 02:08:02;;;;;;;36.00;18.25;;;-0.50;77.70;;;;;;5019036;28;20417;-64
2021/01/16 02:10:28;;;;;;;32.38;17.92;;;-0.50;77.60;;;;;;5015230;28;20048;-65
2021/01/16 02:12:55;;;;;;;33.15;18.08;;;-0.50;77.80;;;;;;5017383;28;20509;-65
2021/01/16 02:15:27;;;;;;;32.78;18.52;;;-0.50;77.80;;;;;;5015878;28;20057;-64
2021/01/16 02:18:09;;;;;;;33.78;18.13;;;-0.50;77.80;;;;;;5022427;28;20037;-65
2021/01/16 02:20:37;;;;;;;35.83;19.05;;;-0.50;77.70;;;;;;5016362;28;20116;-65
2021/01/16 02:23:08;;;;;;;34.05;18.63;;;-0.40;77.60;;;;;;5017033;28;20108;-65
2021/01/16 02:25:40;;;;;;;36.85;18.80;;;-0.50;77.50;;;;;;5016229;28;20030;-65
2021/01/16 02:28:07;;;;;;;34.28;18.52;;;-0.50;77.60;;;;;;5033877;28;20167;-64
2021/01/16 02:30:40;;;;;;;32.75;18.48;;;-0.50;77.60;;;;;;5016491;28;20049;-65
2021/01/16 02:33:08;;;;;;;36.42;18.65;;;-0.50;77.60;;;;;;5018838;28;20547;-65
2021/01/16 02:35:50;;;;;;;33.13;18.50;;;-0.50;77.60;;;;;;5016571;28;20034;-65
2021/01/16 02:38:50;;;;;;;33.53;17.83;;;-0.60;77.50;;;;;;5016108;28;20048;-65
2021/01/16 02:41:55;;;;;;;32.20;17.38;;;-0.60;77.60;;;;;;5014368;28;20033;-65
2021/01/16 02:44:32;;;;;;;37.33;18.58;;;-0.60;77.60;;;;;;5016551;28;20097;-64
2021/01/16 02:47:26;;;;;;;32.88;17.83;;;-0.60;77.50;;;;;;5046112;28;20030;-65
2021/01/16 02:50:04;;;;;;;35.30;18.42;;;-0.60;77.60;;;;;;5009807;28;20029;-65
2021/01/16 02:52:38;;;;;;;31.75;17.42;;;-0.60;77.50;;;;;;5012756;28;20033;-65
2021/01/16 02:55:04;;;;;;;32.15;18.08;;;-0.60;77.60;;;;;;5016836;28;20091;-63
2021/01/16 02:57:30;;;;;;;34.92;18.02;;;-0.70;77.60;;;;;;5013101;28;20129;-65
2021/01/16 02:59:55;;;;;;;35.38;18.10;;;-0.70;77.60;;;;;;5017317;28;20121;-65
2021/01/16 03:02:21;;;;;;;33.92;17.73;;;-0.70;77.60;;;;;;5015864;28;20037;-65
2021/01/16 03:04:46;;;;;;;29.60;17.42;;;-0.70;77.80;;;;;;5017331;28;20574;-65
2021/01/16 03:07:15;;;;;;;33.83;18.33;;;-0.70;77.80;;;;;;5017871;28;20068;-65
2021/01/16 03:09:41;;;;;;;29.38;16.38;;;-0.70;77.80;;;;;;5017418;28;20037;-65
2021/01/16 03:12:09;;;;;;;32.65;17.77;;;-0.70;77.80;;;;;;5016965;28;20400;-65
2021/01/16 03:14:51;;;;;;;33.47;17.63;;;-0.70;77.80;;;;;;5031077;28;20026;-65
2021/01/16 03:17:18;;;;;;;31.27;17.60;;;-0.70;77.80;;;;;;5012139;28;20026;-66
2021/01/16 03:19:48;;;;;;;35.28;17.67;;;-0.70;77.80;;;;;;5016866;28;20022;-65
2021/01/16 03:22:22;;;;;;;33.30;17.92;;;-0.70;77.80;;;;;;5015553;28;20397;-65
2021/01/16 03:24:51;;;;;;;31.60;17.75;;;-0.70;77.90;;;;;;5017069;28;20049;-65
2021/01/16 03:27:17;;;;;;;35.08;17.95;;;-0.70;77.80;;;;;;5015076;28;20033;-65
2021/01/16 03:29:44;;;;;;;37.17;18.15;;;-0.70;77.80;;;;;;5016108;28;20121;-65
2021/01/16 03:32:10;;;;;;;32.08;17.45;;;-0.70;77.80;;;;;;5015424;28;20037;-65
2021/01/16 03:34:37;;;;;;;35.28;18.33;;;-0.70;77.80;;;;;;5016824;28;20026;-65
2021/01/16 03:37:03;;;;;;;30.38;16.25;;;-0.70;77.80;;;;;;5015360;28;20030;-66
2021/01/16 03:39:28;;;;;;;30.27;17.50;;;-0.70;77.90;;;;;;5018060;28;20038;-65
2021/01/16 03:41:54;;;;;;;30.90;17.77;;;-0.70;77.90;;;;;;5011635;28;20099;-65
2021/01/16 03:44:20;;;;;;;34.58;17.48;;;-0.60;78.00;;;;;;5017984;28;20065;-64
2021/01/16 03:46:46;;;;;;;33.95;18.40;;;-0.60;78.00;;;;;;5015801;28;20416;-66
2021/01/16 03:49:11;;;;;;;31.60;17.27;;;-0.60;78.00;;;;;;5016670;28;20030;-65
2021/01/16 03:51:37;;;;;;;30.58;16.90;;;-0.60;78.00;;;;;;5012878;28;20034;-65
2021/01/16 03:54:03;;;;;;;32.47;17.88;;;-0.60;78.00;;;;;;5014974;28;20034;-65
2021/01/16 03:56:29;;;;;;;31.08;17.60;;;-0.50;78.10;;;;;;5013812;28;20045;-65
2021/01/16 03:58:55;;;;;;;33.13;18.50;;;-0.50;78.00;;;;;;5016570;28;20041;-65
2021/01/16 04:01:20;;;;;;;31.52;17.42;;;-0.50;78.10;;;;;;5015814;28;20033;-65
2021/01/16 04:03:46;;;;;;;36.40;18.08;;;-0.50;78.00;;;;;;5017720;28;20060;-65
2021/01/16 04:06:16;;;;;;;32.25;17.85;;;-0.50;78.00;;;;;;5015756;28;20516;-65
2021/01/16 04:08:42;;;;;;;31.70;17.67;;;-0.40;78.00;;;;;;5015100;28;20545;-65
2021/01/16 04:11:07;;;;;;;32.55;17.35;;;-0.40;78.00;;;;;;5018440;28;20033;-64
2021/01/16 04:13:34;;;;;;;32.35;16.45;;;-0.40;77.80;;;;;;5019633;28;20034;-65
2021/01/16 04:15:59;;;;;;;30.98;17.15;;;-0.40;77.80;;;;;;5015785;28;20049;-65
2021/01/16 04:18:25;;;;;;;29.60;16.95;;;-0.40;77.70;;;;;;5018804;28;20480;-65
2021/01/16 04:20:51;;;;;;;28.70;17.05;;;-0.40;77.60;;;;;;5017915;28;20115;-65
2021/01/16 04:23:16;;;;;;;33.30;17.42;;;-0.30;77.60;;;;;;5019048;28;20048;-65
2021/01/16 04:25:42;;;;;;;33.80;17.25;;;-0.40;77.50;;;;;;5019420;28;20030;-65
2021/01/16 04:28:08;;;;;;;30.25;16.50;;;-0.30;77.40;;;;;;5017909;28;20652;-65
2021/01/16 04:30:34;;;;;;;30.35;17.08;;;-0.40;77.40;;;;;;5017055;28;20032;-65
2021/01/16 04:32:59;;;;;;;33.20;17.58;;;-0.40;77.40;;;;;;5020435;28;20040;-65
2021/01/16 04:35:25;;;;;;;31.27;17.00;;;-0.40;77.50;;;;;;5019094;28;20068;-65
2021/01/16 04:37:50;;;;;;;30.23;15.93;;;-0.40;77.40;;;;;;5019280;28;20046;-65
2021/01/16 04:40:18;;;;;;;31.83;17.13;;;-0.50;77.40;;;;;;5019067;28;20029;-64
2021/01/16 04:42:45;;;;;;;34.10;18.35;;;-0.50;77.40;;;;;;5003621;28;20033;-65
2021/01/16 04:45:14;;;;;;;36.00;18.75;;;-0.50;77.50;;;;;;5010131;28;20259;-65
2021/01/16 04:47:46;;;;;;;33.22;17.65;;;-0.50;77.60;;;;;;4998876;28;20034;-65
2021/01/16 04:50:17;;;;;;;33.28;17.95;;;-0.60;77.70;;;;;;4999108;28;20669;-65
2021/01/16 04:52:44;;;;;;;28.50;16.23;;;-0.50;77.80;;;;;;4999035;28;20113;-65
2021/01/16 04:55:12;;;;;;;33.05;18.67;;;-0.60;77.70;;;;;;5031624;28;20042;-65
2021/01/16 04:57:39;;;;;;;33.53;17.65;;;-0.60;77.60;;;;;;4999550;28;20034;-64
2021/01/16 05:00:10;;;;;;;32.75;16.55;;;-0.50;77.70;;;;;;4998424;28;20571;-65
2021/01/16 05:02:39;;;;;;;30.85;16.88;;;-0.60;77.60;;;;;;4999721;28;20038;-65
2021/01/16 05:05:12;;;;;;;31.58;17.08;;;-0.50;78.60;;;;;;4999184;28;20053;-64
2021/01/16 05:07:39;;;;;;;31.95;17.33;;;-0.50;77.80;;;;;;4998193;28;20038;-65
2021/01/16 05:10:07;;;;;;;32.33;16.88;;;-0.50;77.80;;;;;;4998081;28;20030;-63
2021/01/16 05:13:08;;;;;;;32.35;17.77;;;-0.50;77.70;;;;;;5014520;28;20042;-65
2021/01/16 05:15:37;;;;;;;33.03;17.30;;;-0.50;77.60;;;;;;5018518;28;20505;-65
2021/01/16 05:18:04;;;;;;;34.72;18.30;;;-0.60;77.40;;;;;;5015039;28;20406;-65
2021/01/16 05:20:32;;;;;;;32.95;18.27;;;-0.60;77.30;;;;;;5017301;28;20060;-65
2021/01/16 05:23:12;;;;;;;32.08;17.10;;;-0.60;77.40;;;;;;5017725;28;20034;-64
2021/01/16 05:25:44;;;;;;;32.13;17.60;;;-0.70;77.40;;;;;;5019047;28;20409;-65
2021/01/16 05:28:11;;;;;;;35.03;18.38;;;-0.70;77.40;;;;;;5048047;28;20042;-65
2021/01/16 05:30:48;;;;;;;31.48;18.13;;;-0.70;77.60;;;;;;5017662;28;20064;-65
2021/01/16 05:33:15;;;;;;;37.20;19.15;;;-0.70;77.60;;;;;;5018284;28;20030;-64
2021/01/16 05:35:41;;;;;;;34.10;18.90;;;-0.70;77.70;;;;;;5020052;28;20064;-65
2021/01/16 05:38:07;;;;;;;32.22;17.83;;;-0.70;77.60;;;;;;5048013;28;20088;-66
2021/01/16 05:40:34;;;;;;;36.08;18.23;;;-0.80;77.60;;;;;;5016930;28;20091;-65
2021/01/16 05:43:00;;;;;;;33.28;18.55;;;-0.80;77.60;;;;;;5015906;28;20132;-65
2021/01/16 05:45:27;;;;;;;36.33;19.42;;;-0.80;78.00;;;;;;5033360;28;20133;-65
2021/01/16 05:47:54;;;;;;;34.78;18.45;;;-0.80;77.80;;;;;;5018908;28;20033;-65
2021/01/16 05:50:23;;;;;;;34.65;18.23;;;-0.80;77.80;;;;;;5018726;28;20034;-65
2021/01/16 05:52:49;;;;;;;43.92;19.83;;;-0.80;77.80;;;;;;4996731;28;20023;-65
2021/01/16 05:55:17;;;;;;;41.70;19.52;;;-0.80;77.80;;;;;;5004472;28;20026;-65
2021/01/16 05:57:47;;;;;;;40.33;21.13;;;-0.80;77.80;;;;;;5004655;28;20034;-65
2021/01/16 06:00:22;;;;;;;35.78;18.40;;;-0.80;77.80;;;;;;4998118;28;20030;-66
2021/01/16 06:02:49;;;;;;;34.75;18.92;;;-0.80;77.80;;;;;;5016268;28;20021;-65
2021/01/16 06:05:15;;;;;;;34.85;18.67;;;-0.80;77.80;;;;;;5017069;28;20029;-65
2021/01/16 06:07:43;;;;;;;37.85;19.20;;;-0.80;77.80;;;;;;5016406;28;20025;-65
2021/01/16 06:10:13;;;;;;;37.83;19.25;;;-0.80;77.80;;;;;;5017809;28;20034;-65
2021/01/16 06:12:40;;;;;;;36.45;18.42;;;-0.70;77.90;;;;;;5003808;28;20036;-65
2021/01/16 06:15:13;;;;;;;46.28;22.45;;;-0.80;77.80;;;;;;5015942;28;20072;-65
2021/01/16 06:17:43;;;;;;;40.40;20.73;;;-0.80;77.80;;;;;;5017642;28;20091;-66
2021/01/16 06:20:11;;;;;;;41.95;21.88;;;-0.80;77.80;;;;;;5017237;28;20029;-65
2021/01/16 06:22:42;;;;;;;37.90;19.75;;;-0.80;77.80;;;;;;5048630;28;20036;-66
2021/01/16 06:25:20;;;;;;;37.58;20.10;;;-0.80;77.90;;;;;;5048999;28;20044;-65
2021/01/16 06:27:47;;;;;;;37.65;20.40;;;-0.80;78.00;;;;;;5017952;28;20133;-65
2021/01/16 06:30:15;;;;;;;56.58;27.15;;;-0.80;78.00;;;;;;5014877;28;20189;-64
2021/01/16 06:32:49;;;;;;;116.30;49.45;;;-0.80;78.00;;;;;;5013755;28;20044;-65
2021/01/16 06:35:16;;;;;;;49.65;26.77;;;-0.80;78.00;;;;;;5014648;28;20088;-67
2021/01/16 06:37:51;;;;;;;40.42;21.50;;;-0.70;78.10;;;;;;5014499;28;20037;-65
2021/01/16 06:40:31;;;;;;;39.20;21.20;;;-0.70;78.00;;;;;;5046725;28;20121;-64
2021/01/16 06:42:58;;;;;;;39.45;22.45;;;-0.60;78.00;;;;;;5013323;28;20116;-65
2021/01/16 06:45:26;;;;;;;40.22;20.92;;;-0.70;77.90;;;;;;5015928;28;20061;-66
2021/01/16 06:48:00;;;;;;;36.00;18.02;;;-0.70;77.90;;;;;;5022361;28;20459;-64
2021/01/16 06:50:26;;;;;;;35.35;18.60;;;-0.70;78.00;;;;;;5013918;28;20421;-65
2021/01/16 06:52:52;;;;;;;37.53;19.08;;;-0.60;78.00;;;;;;5013506;28;20112;-65
2021/01/16 06:55:19;;;;;;;37.55;20.15;;;-0.60;77.90;;;;;;5015150;28;20033;-65
2021/01/16 06:57:46;;;;;;;39.92;20.33;;;-0.60;77.80;;;;;;5015294;28;20034;-66
2021/01/16 07:00:13;;;;;;;38.65;20.92;;;-0.70;77.60;;;;;;5044608;28;20044;-66
2021/01/16 07:02:41;;;;;;;37.47;20.30;;;-0.70;77.40;;;;;;5005911;28;20045;-65
2021/01/16 07:05:20;;;;;;;40.55;20.13;;;-0.70;77.40;;;;;;5015850;28;20049;-65
2021/01/16 07:07:51;;;;;;;43.35;20.73;;;-0.70;77.40;;;;;;5014126;28;20072;-65
2021/01/16 07:10:30;;;;;;;41.30;21.70;;;-0.70;77.40;;;;;;5016320;28;20043;-65
2021/01/16 07:13:00;;;;;;;40.35;20.92;;;-0.80;77.30;;;;;;5015652;28;20121;-64
2021/01/16 07:15:31;;;;;;;37.47;20.95;;;-0.80;77.40;;;;;;5013292;28;20038;-66
2021/01/16 07:18:00;;;;;;;40.15;20.92;;;-0.80;77.60;;;;;;5015817;28;20076;-65
2021/01/16 07:20:26;;;;;;;39.80;20.02;;;-0.90;77.60;;;;;;5014271;28;20055;-65
2021/01/16 07:22:52;;;;;;;43.97;21.58;;;-0.80;77.90;;;;;;5016790;28;20498;-65
2021/01/16 07:25:20;;;;;;;41.67;21.83;;;-0.90;77.90;;;;;;5014129;28;20049;-66
2021/01/16 07:27:47;;;;;;;46.08;23.23;;;-0.80;78.00;;;;;;5014762;28;20030;-65
2021/01/16 07:30:15;;;;;;;45.45;23.23;;;-0.80;77.90;;;;;;5016526;28;20030;-66
2021/01/16 07:32:49;;;;;;;51.08;26.45;;;-0.80;77.80;;;;;;5012483;28;20832;-65
2021/01/16 07:35:25;;;;;;;56.65;30.02;;;-0.80;77.90;;;;;;5013891;28;20061;-65
2021/01/16 07:37:53;;;;;;;52.00;28.55;;;-0.80;78.50;;;;;;5013042;28;20164;-66
2021/01/16 07:40:19;;;;;;;44.60;22.95;;;-0.80;78.00;;;;;;5015008;28;20025;-65
2021/01/16 07:42:51;;;;;;;40.78;21.55;;;-0.80;78.00;;;;;;5011038;28;20810;-65
2021/01/16 07:45:30;;;;;;;42.60;21.73;;;-0.80;78.00;;;;;;4997731;28;20068;-65
2021/01/16 07:48:02;;;;;;;45.25;23.02;;;-0.80;78.00;;;;;;4996451;28;20038;-65
2021/01/16 07:50:33;;;;;;;39.95;21.67;;;-0.80;78.00;;;;;;4995249;28;20030;-65
2021/01/16 07:53:00;;;;;;;47.08;22.33;;;-0.80;78.00;;;;;;5013561;28;20117;-65
2021/01/16 07:55:35;;;;;;;43.83;22.40;;;-0.80;78.00;;;;;;4997223;28;20660;-65
2021/01/16 07:58:25;;;;;;;41.47;22.20;;;-0.80;78.00;;;;;;4999423;28;20507;-65
2021/01/16 08:01:20;;;;;;;43.65;23.05;;;-0.70;78.00;;;;;;5022776;28;20046;-65
2021/01/16 08:04:05;;;;;;;39.20;21.75;;;-0.70;78.10;;;;;;5003264;28;20121;-64
2021/01/16 08:07:04;;;;;;;46.28;24.15;;;-0.70;78.00;;;;;;4999580;28;20057;-65
2021/01/16 08:09:48;;;;;;;50.25;26.38;;;-0.70;77.90;;;;;;4997455;28;20049;-64
2021/01/16 08:12:15;;;;;;;50.07;25.33;;;-0.70;78.00;;;;;;5000888;28;20125;-66
2021/01/16 08:14:41;;;;;;;49.22;24.98;;;-0.70;78.00;;;;;;5012826;28;20493;-65
2021/01/16 08:17:17;;;;;;;47.38;23.75;;;-0.70;77.90;;;;;;5001761;28;20453;-65
2021/01/16 08:19:46;;;;;;;45.38;23.83;;;-0.70;78.00;;;;;;4998926;28;20026;-64
2021/01/16 08:22:19;;;;;;;48.08;24.02;;;-0.70;78.10;;;;;;5001558;28;20532;-65
2021/01/16 08:25:02;;;;;;;42.30;23.00;;;-0.70;78.30;;;;;;4999677;28;20049;-66
2021/01/16 08:27:35;;;;;;;42.53;21.40;;;-0.70;78.30;;;;;;5000851;28;20076;-65
2021/01/16 08:30:10;;;;;;;38.17;20.80;;;-0.70;78.30;;;;;;4999149;28;20571;-65
2021/01/16 08:33:04;;;;;;;43.85;22.70;;;-0.60;78.30;;;;;;4998271;28;20046;-65
2021/01/16 08:35:46;;;;;;;44.72;23.13;;;-0.60;78.40;;;;;;4999370;28;20076;-66
2021/01/16 08:38:17;;;;;;;44.45;23.20;;;-0.60;78.60;;;;;;4999468;28;20579;-65
2021/01/16 08:41:06;;;;;;;42.72;22.90;;;-0.60;78.30;;;;;;5000174;28;20561;-65
2021/01/16 08:43:40;;;;;;;42.90;22.45;;;-0.60;78.40;;;;;;4999913;28;20045;-65
2021/01/16 08:46:27;;;;;;;46.65;22.88;;;-0.60;78.30;;;;;;5000370;28;20626;-66
2021/01/16 08:49:05;;;;;;;45.35;23.23;;;-0.60;78.30;;;;;;4998818;28;20018;-65
2021/01/16 08:51:35;;;;;;;42.67;22.98;;;-0.60;78.50;;;;;;4997263;28;20030;-65
2021/01/16 08:54:20;;;;;;;45.53;23.98;;;-0.60;78.50;;;;;;4994002;28;20049;-66
2021/01/16 08:56:47;;;;;;;44.22;23.65;;;-0.60;78.70;;;;;;4994813;28;20036;-65
2021/01/16 08:59:27;;;;;;;44.15;23.95;;;-0.50;78.80;;;;;;4998530;28;20038;-65
2021/01/16 09:02:03;;;;;;;43.85;23.40;;;-0.50;78.80;;;;;;4998059;28;20501;-65
2021/01/16 09:04:40;;;;;;;46.05;22.63;;;-0.50;78.70;;;;;;4998228;28;20045;-66
2021/01/16 09:07:22;;;;;;;40.33;22.35;;;-0.40;78.70;;;;;;4997608;28;20489;-65
2021/01/16 09:10:20;;;;;;;44.55;23.00;;;-0.40;78.70;;;;;;5003225;28;20056;-66
2021/01/16 09:12:47;;;;;;;38.97;21.83;;;-0.30;78.90;;;;;;4997742;28;20116;-64
2021/01/16 09:15:42;;;;;;;43.53;22.23;;;-0.30;78.80;;;;;;4998862;28;20493;-64
2021/01/16 09:18:15;;;;;;;41.88;21.92;;;-0.30;78.80;;;;;;4999880;28;20831;-65
2021/01/16 09:20:44;;;;;;;41.28;21.42;;;-0.20;78.70;;;;;;4997681;28;20037;-66
2021/01/16 09:23:19;;;;;;;45.28;23.27;;;-0.20;78.60;;;;;;4997268;28;20033;-65
2021/01/16 09:26:10;;;;;;;43.35;22.33;;;-0.20;78.60;;;;;;5014118;28;20035;-65
2021/01/16 09:28:44;;;;;;;44.25;22.85;;;-0.10;78.90;;;;;;5013654;28;20123;-65
2021/01/16 09:31:20;;;;;;;44.03;21.95;;;-0.10;78.70;;;;;;4997390;28;20053;-64
2021/01/16 09:33:48;;;;;;;42.83;22.75;;;-0.10;78.60;;;;;;5012078;28;20091;-65
2021/01/16 09:36:40;;;;;;;45.00;24.27;;;-0.10;78.50;;;;;;5018998;28;20397;-65
2021/01/16 09:39:13;;;;;;;52.10;24.50;;;-0.10;78.60;;;;;;5019268;28;20054;-65
2021/01/16 09:41:38;;;;;;;46.50;23.77;;;-0.10;78.40;;;;;;5020231;28;20497;-64
2021/01/16 09:44:04;;;;;;;50.17;25.33;;;-0.10;79.20;;;;;;5019621;28;20096;-64
2021/01/16 09:46:35;;;;;;;48.60;24.63;;;-0.10;78.50;;;;;;5017947;28;20671;-65
2021/01/16 09:49:05;;;;;;;53.60;26.48;;;0.00;78.70;;;;;;5016648;28;20037;-65
2021/01/16 09:51:33;;;;;;;50.58;25.38;;;0.00;78.50;;;;;;5017379;28;20065;-65
2021/01/16 09:54:15;;;;;;;56.95;27.40;;;0.00;78.60;;;;;;5011999;28;20037;-66
2021/01/16 09:56:42;;;;;;;48.10;25.98;;;0.00;78.60;;;;;;5013049;28;21297;-65
2021/01/16 09:59:11;;;;;;;50.78;26.55;;;0.00;78.60;;;;;;5012354;28;20042;-65
2021/01/16 10:01:36;;;;;;;47.20;24.23;;;0.10;78.80;;;;;;5017480;28;20048;-64
2021/01/16 10:04:21;;;;;;;46.38;24.13;;;0.20;78.80;;;;;;5016200;28;20038;-64
2021/01/16 10:06:51;;;;;;;48.03;25.90;;;0.20;78.90;;;;;;5016288;28;20094;-65
2021/01/16 10:09:21;;;;;;;47.88;24.35;;;0.20;78.80;;;;;;5017518;28;20033;-65
2021/01/16 10:11:47;;;;;;;49.50;26.17;;;0.30;78.70;;;;;;5016980;28;20048;-64
2021/01/16 10:14:14;;;;;;;47.72;25.35;;;0.30;78.60;;;;;;5017775;28;20030;-65
2021/01/16 10:16:41;;;;;;;47.22;24.73;;;0.40;78.80;;;;;;5018704;28;20533;-64
2021/01/16 10:19:12;;;;;;;48.55;24.80;;;0.40;78.60;;;;;;5015824;28;20034;-64
2021/01/16 10:21:59;;;;;;;47.88;24.13;;;0.50;79.50;;;;;;5016021;28;20034;-65
2021/01/16 10:24:25;;;;;;;47.17;24.67;;;0.50;78.30;;;;;;5017183;28;20091;-64
2021/01/16 10:26:52;;;;;;;47.30;22.75;;;0.60;78.20;;;;;;5018028;28;20098;-64
2021/01/16 10:29:38;;;;;;;46.45;23.77;;;0.60;78.10;;;;;;5016378;28;20026;-64
2021/01/16 10:32:23;;;;;;;48.03;23.83;;;0.60;78.10;;;;;;5017663;28;20036;-65
2021/01/16 10:34:50;;;;;;;47.60;25.25;;;0.60;78.10;;;;;;5017199;28;20038;-65
2021/01/16 10:37:18;;;;;;;58.35;30.20;;;0.60;78.10;;;;;;5016666;28;20046;-65
2021/01/16 10:39:50;;;;;;;49.33;26.85;;;0.70;78.30;;;;;;5019011;28;20026;-65
2021/01/16 10:42:18;;;;;;;48.63;25.92;;;0.70;78.40;;;;;;5018368;28;20030;-64
2021/01/16 10:44:45;;;;;;;44.95;23.73;;;0.80;78.50;;;;;;5015364;28;20943;-65
2021/01/16 10:47:30;;;;;;;46.95;24.58;;;0.80;78.50;;;;;;5016165;28;20041;-65
2021/01/16 10:50:03;;;;;;;46.10;23.88;;;0.90;78.60;;;;;;5016867;28;20029;-65
2021/01/16 10:52:29;;;;;;;47.28;23.85;;;1.00;78.50;;;;;;5016694;28;20072;-66
2021/01/16 10:55:03;;;;;;;48.75;27.77;;;1.00;78.30;;;;;;5015275;28;20460;-65
2021/01/16 10:57:48;;;;;;;44.17;22.48;;;1.10;78.10;;;;;;5015738;28;20037;-66
2021/01/16 11:00:19;;;;;;;43.65;23.27;;;1.20;78.00;;;;;;5016259;28;20022;-66
2021/01/16 11:02:47;;;;;;;47.55;24.65;;;1.20;77.90;;;;;;5015840;28;20029;-66
2021/01/16 11:05:15;;;;;;;43.58;23.52;;;1.30;77.80;;;;;;5009884;28;20476;-65
2021/01/16 11:07:43;;;;;;;45.58;25.83;;;1.30;77.70;;;;;;5012621;28;20083;-66
2021/01/16 11:10:12;;;;;;;39.85;21.10;;;1.30;77.60;;;;;;5016298;28;20117;-67
2021/01/16 11:12:42;;;;;;;43.45;22.65;;;1.30;77.60;;;;;;5014789;28;20124;-66
2021/01/16 11:15:30;;;;;;;39.10;21.63;;;1.40;77.40;;;;;;5015127;28;20060;-66
2021/01/16 11:17:59;;;;;;;39.45;20.55;;;1.40;77.20;;;;;;5016600;28;20529;-65
2021/01/16 11:20:27;;;;;;;36.55;19.75;;;1.40;77.30;;;;;;5017051;28;20509;-67
2021/01/16 11:23:05;;;;;;;34.40;19.50;;;1.40;77.10;;;;;;5018712;28;20033;-65
2021/01/16 11:25:47;;;;;;;34.35;18.63;;;1.50;77.00;;;;;;5017236;28;20042;-66
2021/01/16 11:28:18;;;;;;;32.78;18.77;;;1.50;76.90;;;;;;5018218;28;20116;-65
2021/01/16 11:30:46;;;;;;;30.92;16.83;;;1.50;76.90;;;;;;5016113;28;20048;-65
2021/01/16 11:33:15;;;;;;;34.28;19.52;;;1.60;76.60;;;;;;5017130;28;20029;-65
2021/01/16 11:35:41;;;;;;;37.28;20.95;;;1.60;77.60;;;;;;5017267;28;20030;-66
2021/01/16 11:38:45;;;;;;;32.97;19.00;;;1.70;76.80;;;;;;5016659;28;20038;-65
2021/01/16 11:41:12;;;;;;;33.90;18.75;;;1.70;76.40;;;;;;5016335;28;20517;-64
2021/01/16 11:43:39;;;;;;;38.08;19.77;;;1.70;76.60;;;;;;5017223;28;20069;-64
2021/01/16 11:46:06;;;;;;;33.97;19.40;;;1.80;76.60;;;;;;5048947;28;20022;-64
2021/01/16 11:48:32;;;;;;;33.15;18.65;;;1.80;76.50;;;;;;5016480;28;20038;-65
2021/01/16 11:51:06;;;;;;;38.47;20.40;;;1.80;76.10;;;;;;5017302;28;20038;-65
2021/01/16 11:53:31;;;;;;;41.15;23.15;;;1.90;76.20;;;;;;5016821;28;20037;-65
2021/01/16 11:56:02;;;;;;;43.58;23.67;;;1.90;76.20;;;;;;5015384;28;20038;-65
2021/01/16 11:58:28;;;;;;;46.15;24.73;;;1.90;76.00;;;;;;5013419;28;20038;-65
2021/01/16 12:00:55;;;;;;;44.03;25.10;;;1.90;75.90;;;;;;5012770;28;20521;-65
2021/01/16 12:03:25;;;;;;;40.70;22.08;;;1.90;75.90;;;;;;5012631;28;20087;-66
2021/01/16 12:05:51;;;;;;;36.05;20.35;;;1.90;75.90;;;;;;5012428;28;20557;-64
2021/01/16 12:08:20;;;;;;;38.65;21.50;;;1.90;76.00;;;;;;5014470;28;20042;-66
2021/01/16 12:10:48;;;;;;;36.08;19.67;;;1.90;75.90;;;;;;5011051;28;20567;-64
2021/01/16 12:13:16;;;;;;;33.17;18.38;;;1.90;75.60;;;;;;5016020;28;20034;-64
2021/01/16 12:15:41;;;;;;;32.13;18.00;;;1.80;75.30;;;;;;5014350;28;20049;-64
2021/01/16 12:18:10;;;;;;;35.47;20.15;;;1.80;75.10;;;;;;5030074;28;20117;-65
2021/01/16 12:20:36;;;;;;;34.38;19.52;;;1.80;75.20;;;;;;5014423;28;20129;-64
2021/01/16 12:23:02;;;;;;;34.17;18.92;;;1.80;75.50;;;;;;5015775;28;20104;-64
2021/01/16 12:25:30;;;;;;;34.63;18.65;;;1.80;75.40;;;;;;5014364;28;20087;-64
2021/01/16 12:27:57;;;;;;;35.10;19.48;;;1.80;75.40;;;;;;5016420;28;20021;-64
2021/01/16 12:30:24;;;;;;;37.70;20.27;;;1.90;75.40;;;;;;5018435;28;20033;-64
2021/01/16 12:32:50;;;;;;;39.90;21.30;;;1.90;75.50;;;;;;5019569;28;20425;-64
2021/01/16 12:35:22;;;;;;;50.90;27.65;;;1.90;75.30;;;;;;5017621;28;20034;-65
2021/01/16 12:37:49;;;;;;;40.90;22.65;;;1.90;75.20;;;;;;5017022;28;20030;-63
2021/01/16 12:40:20;;;;;;;43.60;23.58;;;1.90;75.00;;;;;;5019606;28;20026;-64
2021/01/16 12:42:46;;;;;;;45.90;23.85;;;1.90;74.80;;;;;;5020103;28;20038;-64
2021/01/16 12:45:15;;;;;;;52.97;27.35;;;1.90;74.70;;;;;;5017988;28;20052;-64